createdAt,value
2023-04-30T00:05:11.370Z,100909.03
2023-04-30T00:11:53.538Z,100914.34
2023-04-30T00:18:35.811Z,100912.63
2023-04-30T00:25:18.085Z,100921.38
2023-04-30T00:32:00.287Z,100937.16
2023-04-30T00:38:43.095Z,100944.13
2023-04-30T00:45:26.394Z,100947.66
2023-04-30T00:52:08.609Z,100948.53
2023-04-30T00:58:54.349Z,100959.00
2023-04-30T01:05:36.699Z,100965.97
2023-04-30T01:12:38.735Z,100963.34
2023-04-30T01:19:36.706Z,100970.28
2023-04-30T01:26:52.782Z,100965.03
2023-04-30T01:33:35.259Z,100963.25
2023-04-30T01:40:37.743Z,100968.47
2023-04-30T01:48:04.406Z,100979.75
2023-04-30T01:55:05.314Z,100989.31
2023-04-30T02:01:47.581Z,101001.56
2023-04-30T02:08:29.878Z,101000.69
2023-04-30T02:15:12.552Z,101003.25
2023-04-30T02:21:56.486Z,100999.72
2023-04-30T02:28:38.654Z,101016.25
2023-04-30T02:35:21.028Z,101016.25
2023-04-30T02:42:03.337Z,101015.31
2023-04-30T02:48:45.842Z,101017.03
2023-04-30T02:55:28.388Z,101029.22
2023-04-30T03:02:10.957Z,101026.59
2023-04-30T03:08:53.177Z,101037.84
2023-04-30T03:15:35.670Z,101043.91
2023-04-30T03:22:19.608Z,101047.34
2023-04-30T03:29:02.178Z,101056.91
2023-04-30T03:35:44.510Z,101067.38
2023-04-30T03:42:26.679Z,101069.06
2023-04-30T03:49:09.120Z,101075.19
2023-04-30T03:55:51.518Z,101078.66
2023-04-30T04:02:34.315Z,101083.91
2023-04-30T04:09:17.049Z,101100.41
2023-04-30T04:15:59.494Z,101100.41
2023-04-30T04:22:41.842Z,101113.53
2023-04-30T04:29:24.207Z,101120.53
2023-04-30T04:36:07.000Z,101131.91
2023-04-30T04:42:52.050Z,101138.09
2023-04-30T04:49:34.185Z,101134.69
2023-04-30T04:56:16.547Z,101144.31
2023-04-30T05:02:59.425Z,101149.63
2023-04-30T05:09:41.760Z,101151.44
2023-04-30T05:16:24.031Z,101165.50
2023-04-30T05:23:06.360Z,101175.19
2023-04-30T05:29:48.473Z,101177.94
2023-04-30T05:36:30.933Z,101183.25
2023-04-30T05:43:13.101Z,101185.06
2023-04-30T05:49:55.526Z,101195.66
2023-04-30T05:56:37.912Z,101192.19
2023-04-30T06:03:20.537Z,101192.22
2023-04-30T06:10:03.806Z,101205.34
2023-04-30T06:16:47.196Z,101223.72
2023-04-30T06:23:29.479Z,101227.19
2023-04-30T06:30:12.117Z,101228.94
2023-04-30T06:36:54.292Z,101240.28
2023-04-30T06:43:36.464Z,101241.97
2023-04-30T06:50:18.964Z,101234.91
2023-04-30T06:57:01.953Z,101238.34
2023-04-30T07:03:44.464Z,101241.78
2023-04-30T07:10:26.895Z,101241.72
2023-04-30T07:17:09.078Z,101249.47
2023-04-30T07:23:51.685Z,101250.22
2023-04-30T07:30:34.273Z,101257.94
2023-04-30T07:37:16.518Z,101267.41
2023-04-30T07:43:59.837Z,101267.28
2023-04-30T07:50:41.964Z,101273.28
2023-04-30T07:57:26.714Z,101287.28
2023-04-30T08:04:09.652Z,101292.34
2023-04-30T08:10:51.975Z,101290.34
2023-04-30T08:17:35.311Z,101306.84
2023-04-30T08:24:17.476Z,101316.41
2023-04-30T08:30:59.816Z,101323.25
2023-04-30T08:37:41.998Z,101329.16
2023-04-30T08:44:25.729Z,101325.53
2023-04-30T08:51:07.940Z,101349.28
2023-04-30T08:57:50.142Z,101348.59
2023-04-30T09:04:33.489Z,101351.09
2023-04-30T09:11:26.953Z,101348.19
2023-04-30T09:18:19.738Z,101348.94
2023-04-30T09:25:02.088Z,101346.41
2023-04-30T09:31:47.928Z,101351.00
2023-04-30T09:38:33.473Z,101344.41
2023-04-30T09:45:18.258Z,101358.50
2023-04-30T09:52:01.469Z,101352.69
2023-04-30T09:58:48.489Z,101351.84
2023-04-30T10:05:32.724Z,101357.97
2023-04-30T10:12:18.124Z,101349.38
2023-04-30T10:19:07.659Z,101355.81
2023-04-30T10:25:51.434Z,101353.81
2023-04-30T10:32:55.173Z,101353.56
2023-04-30T10:39:38.610Z,101345.03
2023-04-30T10:46:24.797Z,101355.84
2023-04-30T10:53:07.235Z,101349.97
2023-04-30T11:00:14.607Z,101350.47
2023-04-30T11:07:08.107Z,101350.88
2023-04-30T11:14:01.384Z,101345.06
2023-04-30T11:20:51.860Z,101351.41
2023-04-30T11:27:35.587Z,101354.66
2023-04-30T11:34:18.130Z,101344.75
2023-04-30T11:41:02.028Z,101351.53
2023-04-30T11:47:49.756Z,101355.41
2023-04-30T11:54:38.173Z,101361.75
2023-04-30T12:01:21.649Z,101370.13
2023-04-30T12:08:09.403Z,101368.88
2023-04-30T12:14:51.616Z,101371.50
2023-04-30T12:21:34.660Z,101355.59
2023-04-30T12:28:16.922Z,101363.03
2023-04-30T12:35:01.603Z,101366.53
2023-04-30T12:41:50.378Z,101365.47
2023-04-30T12:48:46.510Z,101359.44
2023-04-30T12:55:29.629Z,101356.03
2023-04-30T13:02:14.866Z,101364.91
2023-04-30T13:08:58.980Z,101356.22
2023-04-30T13:15:43.053Z,101365.66
2023-04-30T13:22:30.642Z,101362.34
2023-04-30T13:29:12.797Z,101361.03
2023-04-30T13:35:54.912Z,101371.44
2023-04-30T13:42:43.226Z,101379.16
2023-04-30T13:49:25.500Z,101382.03
2023-04-30T13:56:07.950Z,101370.53
2023-04-30T14:02:50.235Z,101367.28
2023-04-30T14:09:32.666Z,101372.94
2023-04-30T14:16:14.932Z,101371.41
2023-04-30T14:22:57.203Z,101371.56
2023-04-30T14:29:39.391Z,101377.97
2023-04-30T14:36:21.659Z,101378.13
2023-04-30T14:43:03.835Z,101371.41
2023-04-30T14:49:46.000Z,101375.81
2023-04-30T14:56:28.204Z,101388.59
2023-04-30T15:03:10.486Z,101379.13
2023-04-30T15:09:53.244Z,101381.34
2023-04-30T15:16:35.945Z,101378.81
2023-04-30T15:23:18.312Z,101398.31
2023-04-30T15:30:00.559Z,101389.19
2023-04-30T15:36:42.872Z,101397.53
2023-04-30T15:43:25.049Z,101402.84
2023-04-30T15:50:08.471Z,101396.25
2023-04-30T15:56:51.968Z,101409.75
2023-04-30T16:03:34.326Z,101403.59
2023-04-30T16:10:19.203Z,101406.66
2023-04-30T16:17:01.297Z,101394.16
2023-04-30T16:23:43.731Z,101401.63
2023-04-30T16:30:25.924Z,101414.31
2023-04-30T16:37:09.122Z,101405.09
2023-04-30T16:43:51.370Z,101413.66
2023-04-30T16:50:33.688Z,101411.56
2023-04-30T16:57:16.516Z,101417.22
2023-04-30T17:03:58.778Z,101418.50
2023-04-30T17:10:42.570Z,101436.53
2023-04-30T17:17:24.783Z,101437.00
2023-04-30T17:24:07.979Z,101439.88
2023-04-30T17:30:50.537Z,101441.94
2023-04-30T17:37:33.323Z,101450.22
2023-04-30T17:44:19.483Z,101465.56
2023-04-30T17:51:01.788Z,101467.63
2023-04-30T17:57:46.952Z,101468.69
2023-04-30T18:04:29.136Z,101473.22
2023-04-30T18:11:11.894Z,101476.03
2023-04-30T18:17:54.287Z,101487.63
2023-04-30T18:24:36.534Z,101490.44
2023-04-30T18:31:19.035Z,101494.03
2023-04-30T18:38:01.917Z,101500.19
2023-04-30T18:44:44.071Z,101505.53
2023-04-30T18:51:26.429Z,101509.00
2023-04-30T18:58:09.183Z,101516.00
2023-04-30T19:04:52.325Z,101526.53
2023-04-30T19:11:38.001Z,101530.84
2023-04-30T19:18:21.217Z,101529.94
2023-04-30T19:25:04.107Z,101524.66
2023-04-30T19:31:46.488Z,101535.94
2023-04-30T19:38:28.903Z,101543.72
2023-04-30T19:45:11.565Z,101538.38
2023-04-30T19:51:54.894Z,101530.34
2023-04-30T19:58:37.156Z,101528.50
2023-04-30T20:05:19.392Z,101535.41
2023-04-30T20:12:04.344Z,101535.31
2023-04-30T20:18:46.690Z,101536.09
2023-04-30T20:25:29.572Z,101538.72
2023-04-30T20:32:11.812Z,101537.66
2023-04-30T20:38:55.694Z,101551.50
2023-04-30T20:45:38.381Z,101550.44
2023-04-30T20:52:20.624Z,101549.38
2023-04-30T20:59:04.845Z,101562.41
2023-04-30T21:05:47.257Z,101557.94
2023-04-30T21:12:29.704Z,101563.03
2023-04-30T21:19:11.815Z,101554.28
2023-04-30T21:25:57.062Z,101556.78
2023-04-30T21:32:39.544Z,101559.34
2023-04-30T21:39:21.993Z,101557.59
2023-04-30T21:46:04.287Z,101562.00
2023-04-30T21:52:46.496Z,101567.25
2023-04-30T21:59:28.996Z,101564.63
2023-04-30T22:06:11.263Z,101562.91
2023-04-30T22:12:53.700Z,101561.13
2023-04-30T22:19:36.098Z,101566.19
2023-04-30T22:26:18.308Z,101575.63
2023-04-30T22:33:00.486Z,101571.97
2023-04-30T22:39:43.025Z,101563.13
2023-04-30T22:46:25.250Z,101565.72
2023-04-30T22:53:07.561Z,101574.44
2023-04-30T22:59:49.763Z,101572.69
2023-04-30T23:06:32.577Z,101574.34
2023-04-30T23:13:15.172Z,101575.97
2023-04-30T23:19:57.844Z,101581.91
2023-04-30T23:26:40.247Z,101572.19
2023-04-30T23:33:22.466Z,101572.09
2023-04-30T23:40:07.487Z,101571.13
2023-04-30T23:46:51.099Z,101572.78
2023-04-30T23:53:33.397Z,101562.25
